Time;durP1;ratioP1;P1;durP2;ratioP2;P2;SDS_P1;SDS_P2;PMS_P1;PMS_P2;Temp;Humidity;BMP_temperature;BMP_pressure;BME280_temperature;BME280_humidity;BME280_pressure;Samples;Min_cycle;Max_cycle;Signal;HPM_P1;HPM_P2
2023/10/11 00:00:57;;;;;;;10.90;7.10;;;;;;;3.74;72.40;100646.53;107955;1254;73047;-82
2023/10/11 00:05:54;;;;;;;12.40;8.30;;;;;;;3.83;72.19;100646.50;108515;1255;70538;-82
2023/10/11 00:08:30;;;;;;;14.50;9.40;;;;;;;3.92;72.00;100640.44;109026;1254;57986;-82
2023/10/11 00:10:59;;;;;;;14.50;9.90;;;;;;;3.94;72.08;100635.39;108480;1256;59527;-82
2023/10/11 00:13:32;;;;;;;15.80;9.40;;;;;;;3.94;72.18;100634.20;106810;1259;73257;-83
2023/10/11 00:16:09;;;;;;;13.80;8.70;;;;;;;3.92;72.35;100635.36;107101;1255;69450;-82
2023/10/11 00:18:38;;;;;;;14.90;9.40;;;;;;;3.89;72.36;100638.72;106536;1256;71411;-81
2023/10/11 00:21:10;;;;;;;15.80;10.50;;;;;;;3.88;72.36;100641.98;105758;1259;59662;-83
2023/10/11 00:23:39;;;;;;;16.20;10.40;;;;;;;3.84;72.49;100640.31;105667;1260;60072;-80
2023/10/11 00:26:07;;;;;;;16.60;10.70;;;;;;;3.81;72.41;100645.43;105689;1256;70948;-79
2023/10/11 00:28:37;;;;;;;21.00;12.50;;;;;;;3.74;72.40;100647.10;105695;1256;70205;-82
2023/10/11 00:31:11;;;;;;;24.50;12.10;;;;;;;3.70;72.63;100646.33;105938;1261;72823;-79
2023/10/11 00:33:39;;;;;;;18.40;9.60;;;;;;;3.78;72.51;100650.37;105926;1257;59698;-78
2023/10/11 00:36:08;;;;;;;19.10;11.10;;;;;;;3.85;72.25;100650.54;106851;1255;59723;-82
2023/10/11 00:38:50;;;;;;;17.80;11.60;;;;;;;3.84;72.24;100650.08;106754;1256;73718;-79
2023/10/11 00:41:18;;;;;;;19.10;12.10;;;;;;;3.83;72.56;100656.86;106173;1260;70465;-80
2023/10/11 00:43:54;;;;;;;17.80;12.00;;;;;;;3.81;72.72;100662.07;105659;1259;71410;-78
2023/10/11 00:46:27;;;;;;;20.90;12.50;;;;;;;3.78;72.61;100663.83;105694;1256;59704;-78
2023/10/11 00:49:02;;;;;;;;;;;;;;;3.73;72.68;100670.98;105840;1259;59984;-80
2023/10/11 00:51:30;;;;;;;18.60;12.20;;;;;;;3.65;72.75;100669.39;105863;1255;75006;-80
2023/10/11 00:54:03;;;;;;;19.60;12.60;;;;;;;3.58;72.90;100670.42;105898;1260;69645;-80
2023/10/11 00:56:34;;;;;;;20.50;12.80;;;;;;;3.50;72.94;100678.61;105775;1256;72959;-81
2023/10/11 00:59:08;;;;;;;16.60;11.10;;;;;;;3.44;73.18;100674.45;105638;1257;59873;-81
2023/10/11 01:01:42;;;;;;;30.40;13.30;;;;;;;3.49;73.10;100671.34;106216;1256;60334;-82
2023/10/11 01:04:12;;;;;;;21.20;11.20;;;;;;;3.56;73.00;100665.64;106112;1256;73107;-81
2023/10/11 01:06:40;;;;;;;19.80;11.70;;;;;;;3.56;73.18;100670.91;108809;1256;68888;-81
2023/10/11 01:09:27;;;;;;;18.80;12.40;;;;;;;3.52;73.48;100671.48;109020;1255;71083;-79
2023/10/11 01:11:54;;;;;;;18.90;12.20;;;;;;;3.51;73.61;100672.62;106710;1260;59650;-81
2023/10/11 01:14:23;;;;;;;18.30;11.20;;;;;;;3.46;73.61;100669.93;107156;1255;59024;-80
2023/10/11 01:16:51;;;;;;;18.10;12.00;;;;;;;3.42;73.75;100677.58;106236;1260;71805;-80
2023/10/11 01:19:20;;;;;;;21.90;13.40;;;;;;;3.36;73.86;100681.08;105942;1255;68789;-81
2023/10/11 01:21:51;;;;;;;18.40;12.50;;;;;;;3.31;73.89;100676.02;105783;1256;72033;-82
2023/10/11 01:24:18;;;;;;;19.40;11.60;;;;;;;3.26;74.07;100676.64;105909;1260;60391;-81
2023/10/11 01:26:48;;;;;;;19.70;12.20;;;;;;;3.34;73.95;100679.10;105773;1260;59496;-80
2023/10/11 01:29:16;;;;;;;17.80;12.20;;;;;;;3.44;73.69;100680.23;105666;1261;73432;-79
2023/10/11 01:31:45;;;;;;;17.70;12.50;;;;;;;3.45;73.92;100683.33;105517;1263;68854;-80
2023/10/11 01:34:14;;;;;;;14.80;10.70;;;;;;;3.44;74.15;100679.90;105956;1260;71184;-85
2023/10/11 01:36:46;;;;;;;17.90;12.10;;;;;;;3.41;74.17;100679.77;106474;1256;60273;-81
2023/10/11 01:39:13;;;;;;;18.20;11.70;;;;;;;3.39;74.34;100677.94;106249;1261;61864;-83
2023/10/11 01:41:42;;;;;;;21.80;12.30;;;;;;;3.38;74.32;100680.10;105704;1254;73339;-83
2023/10/11 01:44:11;;;;;;;19.10;12.10;;;;;;;3.33;74.34;100681.81;105883;1260;69030;-83
2023/10/11 01:46:40;;;;;;;23.60;11.10;;;;;;;3.27;74.49;100683.03;106052;1260;71801;-82
2023/10/11 01:49:09;;;;;;;20.80;11.50;;;;;;;3.26;74.52;100684.73;106385;1258;60548;-82
2023/10/11 01:51:40;;;;;;;17.10;11.10;;;;;;;3.32;74.06;100682.38;106655;1261;60521;-79
2023/10/11 01:54:09;;;;;;;15.50;10.40;;;;;;;3.42;74.20;100688.10;106299;1256;73909;-80
2023/10/11 01:56:38;;;;;;;20.00;11.70;;;;;;;3.41;74.43;100690.08;106284;1260;69109;-81
2023/10/11 01:59:07;;;;;;;17.10;11.20;;;;;;;3.35;74.49;100693.57;106178;1260;72812;-83
2023/10/11 02:01:41;;;;;;;20.00;12.90;;;;;;;3.30;74.52;100695.29;106402;1259;60418;-80
2023/10/11 02:04:17;;;;;;;16.10;10.30;;;;;;;3.25;74.54;100697.02;107876;1256;60361;-81
2023/10/11 02:06:49;;;;;;;17.40;11.00;;;;;;;3.23;74.76;100700.50;108951;1256;74810;-80
2023/10/11 02:09:26;;;;;;;18.00;10.10;;;;;;;3.23;74.84;100703.82;108372;1260;68723;-81
2023/10/11 02:11:54;;;;;;;18.00;10.50;;;;;;;3.25;74.80;100708.23;106334;1260;71957;-80
2023/10/11 02:14:23;;;;;;;20.40;10.20;;;;;;;3.38;74.55;100710.05;106429;1260;60307;-78
2023/10/11 02:16:54;;;;;;;14.60;9.10;;;;;;;3.49;74.15;100720.36;106053;1260;60589;-79
2023/10/11 02:19:24;;;;;;;13.50;9.20;;;;;;;3.50;74.01;100730.09;105930;1255;73945;-80
2023/10/11 02:21:55;;;;;;;15.40;9.50;;;;;;;3.50;73.58;100729.44;105858;1262;68512;-81
2023/10/11 02:24:25;;;;;;;15.20;9.50;;;;;;;3.50;73.35;100723.98;106024;1256;71516;-81
2023/10/11 02:26:54;;;;;;;16.30;7.90;;;;;;;3.50;73.06;100726.64;107720;1257;59899;-80
2023/10/11 02:29:23;;;;;;;15.50;8.60;;;;;;;3.50;72.60;100724.52;108310;1254;60352;-81
2023/10/11 02:31:52;;;;;;;16.60;10.30;;;;;;;3.50;72.46;100725.55;108839;1259;72955;-79
2023/10/11 02:34:20;;;;;;;19.70;10.30;;;;;;;3.50;72.58;100727.98;108701;1256;69186;-82
2023/10/11 02:37:01;;;;;;;17.30;10.10;;;;;;;3.56;72.50;100728.35;106798;1260;71280;-80
2023/10/11 02:39:31;;;;;;;14.10;9.20;;;;;;;3.68;72.21;100729.81;105910;1259;60449;-80
2023/10/11 02:42:00;;;;;;;14.80;8.80;;;;;;;3.70;72.07;100730.58;106103;1261;60425;-83
2023/10/11 02:44:28;;;;;;;17.60;11.20;;;;;;;3.68;72.13;100729.48;106356;1260;74097;-83
2023/10/11 02:46:58;;;;;;;22.10;13.70;;;;;;;3.65;72.16;100730.53;105773;1257;70565;-80
2023/10/11 02:49:31;;;;;;;19.40;13.40;;;;;;;3.62;72.23;100731.81;105753;1260;72448;-81
2023/10/11 02:52:05;;;;;;;19.70;12.70;;;;;;;3.57;72.18;100733.33;107192;1257;60441;-78
2023/10/11 02:54:38;;;;;;;18.90;11.30;;;;;;;3.52;72.27;100734.00;106856;1255;60853;-77
2023/10/11 02:57:18;;;;;;;17.30;11.00;;;;;;;3.49;72.12;100735.10;106098;1254;72735;-80
2023/10/11 02:59:50;;;;;;;20.60;13.80;;;;;;;3.46;72.21;100737.92;106840;1260;68828;-77
2023/10/11 03:02:21;;;;;;;19.80;13.30;;;;;;;3.42;72.35;100740.61;107858;1254;71588;-79
2023/10/11 03:04:52;;;;;;;18.80;11.00;;;;;;;3.50;72.27;100740.80;108989;1255;58713;-80
2023/10/11 03:07:23;;;;;;;20.20;11.50;;;;;;;3.59;71.88;100736.91;109097;1254;60226;-80
2023/10/11 03:09:53;;;;;;;20.80;11.30;;;;;;;3.58;72.12;100737.13;107498;1260;72640;-80
2023/10/11 03:12:34;;;;;;;16.70;10.40;;;;;;;3.55;71.95;100739.30;106638;1255;69194;-79
2023/10/11 03:15:11;;;;;;;14.70;9.80;;;;;;;3.52;72.06;100728.95;106256;1259;71836;-79
2023/10/11 03:17:45;;;;;;;17.90;10.60;;;;;;;3.51;71.91;100725.00;106003;1259;60552;-80
2023/10/11 03:20:36;;;;;;;18.40;9.40;;;;;;;3.52;71.74;100728.43;106472;1255;60461;-76
2023/10/11 03:23:10;;;;;;;13.10;7.60;;;;;;;3.53;71.66;100731.68;108488;1260;72664;-74
2023/10/11 03:25:43;;;;;;;13.00;7.50;;;;;;;3.56;71.40;100733.23;105644;1261;68761;-76
2023/10/11 03:28:14;;;;;;;10.50;5.50;;;;;;;3.60;71.17;100739.64;105613;1259;72115;-77
2023/10/11 03:30:42;;;;;;;9.20;6.70;;;;;;;3.74;70.69;100743.46;105715;1260;60743;-78
2023/10/11 03:33:10;;;;;;;11.90;5.80;;;;;;;3.83;70.59;100744.30;105696;1263;60427;-77
2023/10/11 03:35:38;;;;;;;8.60;6.00;;;;;;;3.84;70.12;100738.30;105931;1261;73862;-75
2023/10/11 03:38:17;;;;;;;9.40;5.40;;;;;;;3.83;70.08;100734.82;105678;1256;68734;-73
2023/10/11 03:40:54;;;;;;;9.60;6.10;;;;;;;3.82;69.96;100729.27;106118;1257;72726;-77
2023/10/11 03:43:23;;;;;;;8.00;4.60;;;;;;;3.82;69.91;100732.59;105773;1256;60608;-76
2023/10/11 03:45:51;;;;;;;8.00;4.80;;;;;;;3.82;69.72;100733.52;105858;1259;60515;-77
2023/10/11 03:48:27;;;;;;;9.80;4.80;;;;;;;3.81;70.03;100731.11;105383;1258;73849;-79
2023/10/11 03:50:55;;;;;;;9.50;5.40;;;;;;;3.81;70.00;100734.84;105504;1261;70488;-79
2023/10/11 03:53:23;;;;;;;8.00;4.90;;;;;;;3.83;69.75;100738.16;105836;1255;72582;-80
2023/10/11 03:55:51;;;;;;;9.60;5.40;;;;;;;3.96;69.41;100735.38;105794;1257;60509;-80
2023/10/11 04:01:14;;;;;;;13.20;5.20;;;;;;;3.97;69.22;100735.47;107884;1257;73790;-82
2023/10/11 04:03:41;;;;;;;9.80;4.80;;;;;;;3.97;69.03;100737.23;108982;1255;69500;-81
2023/10/11 04:06:19;;;;;;;8.60;5.00;;;;;;;3.98;69.00;100739.29;108719;1256;71085;-80
2023/10/11 04:08:56;;;;;;;7.40;4.60;;;;;;;3.99;68.81;100745.19;107626;1254;60498;-80
2023/10/11 04:14:23;;;;;;;5.40;3.80;;;;;;;4.00;68.88;100736.54;107264;1260;72618;-80
2023/10/11 04:17:00;;;;;;;6.70;3.90;;;;;;;3.99;68.94;100741.10;106229;1260;68377;-79
2023/10/11 04:19:31;;;;;;;5.50;3.30;;;;;;;4.01;68.88;100737.66;108108;1254;72284;-82
2023/10/11 04:22:12;;;;;;;5.40;3.50;;;;;;;4.14;68.64;100738.20;106401;1259;60460;-79
2023/10/11 04:24:41;;;;;;;5.90;3.40;;;;;;;4.22;68.59;100743.85;105626;1260;60359;-81
2023/10/11 04:29:51;;;;;;;6.00;3.50;;;;;;;4.24;68.41;100747.02;105522;1258;70013;-80
2023/10/11 04:32:40;;;;;;;6.00;2.80;;;;;;;4.25;68.33;100748.52;105572;1256;73284;-80
2023/10/11 04:35:25;;;;;;;4.40;3.30;;;;;;;4.27;68.40;100738.61;105700;1260;60442;-80
2023/10/11 04:37:54;;;;;;;5.30;3.00;;;;;;;4.28;68.01;100749.42;105964;1261;60444;-81
2023/10/11 04:40:39;;;;;;;6.60;3.50;;;;;;;4.27;67.88;100751.71;105723;1258;72896;-80
2023/10/11 04:43:17;;;;;;;6.20;3.50;;;;;;;4.27;68.14;100749.30;105706;1260;70034;-79
2023/10/11 04:45:45;;;;;;;7.10;3.90;;;;;;;4.25;68.01;100747.80;105615;1257;71826;-80
2023/10/11 04:48:29;;;;;;;7.20;4.10;;;;;;;4.29;67.66;100754.19;105813;1261;61010;-80
2023/10/11 04:51:13;;;;;;;7.80;4.60;;;;;;;4.43;67.66;100759.77;105853;1262;60443;-81
2023/10/11 04:59:07;;;;;;;8.20;4.70;;;;;;;4.51;66.78;100756.61;106398;1258;72541;-81
2023/10/11 05:04:15;;;;;;;8.30;4.70;;;;;;;4.57;66.94;100751.15;108611;1255;58876;-82
2023/10/11 05:06:45;;;;;;;8.90;4.80;;;;;;;4.58;66.84;100749.63;108150;1257;72616;-82
2023/10/11 05:09:21;;;;;;;6.30;4.50;;;;;;;4.62;66.38;100750.12;106534;1257;70194;-82
2023/10/11 05:11:53;;;;;;;7.60;4.60;;;;;;;4.65;66.27;100751.29;105915;1261;71288;-80
2023/10/11 05:14:31;;;;;;;8.50;4.00;;;;;;;4.68;66.20;100751.38;105927;1262;60503;-81
2023/10/11 05:16:59;;;;;;;8.30;4.80;;;;;;;4.71;66.29;100753.98;105610;1256;60625;-83
2023/10/11 05:19:27;;;;;;;8.40;4.80;;;;;;;4.74;66.14;100755.02;105601;1258;73899;-81
2023/10/11 05:21:55;;;;;;;9.50;5.90;;;;;;;4.77;66.20;100758.36;105796;1258;70422;-82
2023/10/11 05:24:44;;;;;;;7.40;5.10;;;;;;;4.81;65.89;100760.92;105731;1257;72825;-83
2023/10/11 05:27:12;;;;;;;8.20;5.90;;;;;;;4.85;65.18;100761.15;105984;1260;60560;-82
2023/10/11 05:32:32;;;;;;;11.60;7.00;;;;;;;4.94;64.38;100764.20;107262;1254;72606;-82
2023/10/11 05:51:48;;;;;;;16.90;7.80;;;;;;;5.34;62.55;100773.68;106083;1260;71816;-80
2023/10/11 05:54:16;;;;;;;12.60;9.20;;;;;;;5.39;62.51;100775.11;106341;1254;60453;-78
2023/10/11 05:56:47;;;;;;;19.40;10.40;;;;;;;5.44;62.38;100777.31;106339;1254;60360;-83
2023/10/11 05:59:15;;;;;;;19.80;10.70;;;;;;;5.51;62.10;100772.42;106264;1257;73863;-83
2023/10/11 06:01:47;;;;;;;18.20;9.30;;;;;;;5.58;62.16;100775.27;106515;1257;69189;-82
2023/10/11 06:04:16;;;;;;;18.10;10.50;;;;;;;5.67;62.08;100774.47;108834;1254;72669;-82
2023/10/11 06:06:46;;;;;;;13.80;9.50;;;;;;;5.78;61.93;100780.17;108840;1257;60787;-82
2023/10/11 06:09:17;;;;;;;17.20;11.00;;;;;;;5.86;61.79;100782.08;107544;1253;59237;-82
2023/10/11 06:11:50;;;;;;;16.50;10.80;;;;;;;5.94;61.81;100781.48;107843;1254;73133;-83
2023/10/11 06:14:18;;;;;;;17.40;10.50;;;;;;;6.02;61.03;100779.33;106723;1254;68800;-83
2023/10/11 06:16:57;;;;;;;21.60;10.10;;;;;;;6.09;61.07;100784.98;106031;1260;73619;-82
2023/10/11 06:19:26;;;;;;;16.70;10.00;;;;;;;6.14;60.45;100786.56;105847;1256;60432;-82
2023/10/11 06:21:58;;;;;;;16.50;10.00;;;;;;;6.18;60.47;100782.78;105800;1260;60477;-82
2023/10/11 06:24:30;;;;;;;17.20;10.70;;;;;;;6.22;60.58;100781.53;105782;1258;73891;-81
2023/10/11 06:29:45;;;;;;;16.90;9.50;;;;;;;6.34;60.15;100782.41;105696;1264;71423;-82
2023/10/11 06:32:12;;;;;;;15.40;9.40;;;;;;;6.41;59.58;100786.15;105994;1257;61291;-82
2023/10/11 06:34:50;;;;;;;14.10;9.60;;;;;;;6.42;59.38;100783.40;105962;1254;60616;-81
2023/10/11 06:37:23;;;;;;;16.10;9.50;;;;;;;6.42;59.64;100784.10;106053;1260;72403;-82
2023/10/11 06:42:21;;;;;;;13.40;10.00;;;;;;;6.53;59.52;100788.20;106091;1257;72775;-81
2023/10/11 06:45:05;;;;;;;16.10;9.90;;;;;;;6.61;59.05;100788.17;106181;1257;60485;-82
2023/10/11 06:47:36;;;;;;;15.90;9.80;;;;;;;6.66;58.67;100790.06;107446;1257;60509;-82
2023/10/11 06:50:10;;;;;;;18.80;9.50;;;;;;;6.71;58.81;100788.95;106529;1254;72650;-82
2023/10/11 06:52:46;;;;;;;12.20;8.60;;;;;;;6.79;58.88;100793.84;108162;1254;68980;-82
2023/10/11 06:55:18;;;;;;;15.60;9.10;;;;;;;6.86;58.80;100789.42;108104;1254;71546;-81
2023/10/11 06:57:56;;;;;;;12.10;8.50;;;;;;;6.96;58.62;100790.74;107062;1255;60423;-81
2023/10/11 07:00:25;;;;;;;18.60;9.00;;;;;;;7.07;58.65;100790.23;106125;1260;61657;-82
2023/10/11 07:05:46;;;;;;;14.90;8.00;;;;;;;7.26;58.08;100802.67;109320;1255;69037;-80
2023/10/11 07:08:17;;;;;;;15.80;8.60;;;;;;;7.33;57.91;100806.73;109075;1255;71061;-82
2023/10/11 07:12:28;;;;;;;14.00;8.00;;;;;;;7.40;57.87;100806.39;107876;1255;60586;-79
2023/10/11 07:13:57;;;;;;;11.90;9.00;;;;;;;7.48;57.79;100808.52;106702;1254;60838;-82
2023/10/11 07:16:31;;;;;;;16.30;8.80;;;;;;;7.55;57.71;100807.80;108074;1254;72591;-81
2023/10/11 07:18:58;;;;;;;14.20;8.20;;;;;;;7.64;57.72;100812.16;107840;1256;68737;-83
2023/10/11 07:21:48;;;;;;;15.90;8.90;;;;;;;7.75;57.52;100813.61;107538;1257;73043;-82
2023/10/11 07:27:08;;;;;;;18.80;9.60;;;;;;;7.97;57.26;100811.85;106337;1256;60419;-81
2023/10/11 07:29:42;;;;;;;15.00;9.50;;;;;;;8.10;56.98;100819.05;105906;1257;73829;-81
2023/10/11 07:32:18;;;;;;;17.90;9.50;;;;;;;8.22;56.64;100809.40;105936;1260;69302;-79
2023/10/11 07:34:48;;;;;;;15.60;9.90;;;;;;;8.35;56.72;100812.20;105940;1254;72517;-81
2023/10/11 07:37:18;;;;;;;16.00;9.80;;;;;;;8.48;56.10;100814.33;105753;1255;60546;-80
2023/10/11 07:39:47;;;;;;;17.70;9.20;;;;;;;8.58;55.61;100810.84;105892;1255;60467;-80
2023/10/11 07:42:19;;;;;;;16.20;10.20;;;;;;;8.66;55.62;100801.23;106250;1260;74613;-82
2023/10/11 07:45:12;;;;;;;15.30;8.70;;;;;;;8.75;55.67;100803.95;106182;1257;70183;-80
2023/10/11 07:47:45;;;;;;;;;;;;;;;8.89;54.96;100807.88;105940;1257;71425;-78
2023/10/11 07:50:14;;;;;;;13.80;8.10;;;;;;;8.99;54.80;100802.14;105903;1261;61058;-79
2023/10/11 07:52:43;;;;;;;14.70;8.90;;;;;;;9.08;54.85;100794.84;105996;1254;60449;-80
2023/10/11 07:55:14;;;;;;;14.70;8.90;;;;;;;9.16;54.69;100791.98;105701;1257;72665;-78
2023/10/11 07:57:45;;;;;;;17.70;8.40;;;;;;;9.29;54.72;100789.80;105836;1260;69168;-79
2023/10/11 08:00:17;;;;;;;15.90;7.90;;;;;;;9.46;54.40;100787.48;106079;1260;71832;-78
2023/10/11 08:02:56;;;;;;;14.90;7.50;;;;;;;9.62;53.73;100791.61;107194;1254;60511;-78
2023/10/11 08:05:25;;;;;;;10.40;6.40;;;;;;;9.73;53.37;100791.23;108804;1254;60276;-77
2023/10/11 08:07:55;;;;;;;10.90;5.90;;;;;;;9.77;53.24;100789.95;107569;1255;72564;-77
2023/10/11 08:10:29;;;;;;;11.80;6.70;;;;;;;9.85;53.47;100785.41;105976;1258;70113;-79
2023/10/11 08:13:00;;;;;;;13.30;6.60;;;;;;;9.97;53.40;100784.29;105950;1254;70394;-78
2023/10/11 08:15:27;;;;;;;14.40;6.80;;;;;;;10.14;53.30;100778.74;105830;1256;60511;-78
2023/10/11 08:17:55;;;;;;;11.50;7.50;;;;;;;10.31;52.99;100774.02;105770;1258;60790;-77
2023/10/11 08:20:28;;;;;;;10.30;6.50;;;;;;;10.45;52.71;100773.92;105647;1258;73799;-77
2023/10/11 08:22:58;;;;;;;12.40;6.70;;;;;;;10.62;51.91;100772.76;105530;1258;73236;-78
2023/10/11 08:25:28;;;;;;;9.80;6.00;;;;;;;10.75;51.77;100768.98;105610;1259;72623;-77
2023/10/11 08:28:19;;;;;;;10.40;5.10;;;;;;;10.93;51.68;100773.70;105725;1254;60545;-79
2023/10/11 08:30:47;;;;;;;11.70;5.40;;;;;;;11.13;51.06;100772.50;105889;1257;60311;-78
2023/10/11 08:33:17;;;;;;;9.10;5.80;;;;;;;11.30;51.23;100768.30;105792;1257;73883;-80
2023/10/11 08:35:46;;;;;;;7.00;5.00;;;;;;;11.50;50.36;100777.29;106393;1259;69858;-81
2023/10/11 08:38:18;;;;;;;8.30;4.90;;;;;;;11.68;49.64;100780.41;106622;1254;72762;-80
2023/10/11 08:40:58;;;;;;;9.90;5.10;;;;;;;11.73;49.36;100771.75;105933;1256;60502;-79
2023/10/11 08:43:26;;;;;;;9.70;6.10;;;;;;;11.81;49.49;100777.36;106068;1260;60350;-80
2023/10/11 08:46:00;;;;;;;6.80;4.70;;;;;;;11.93;48.93;100781.81;105887;1260;74021;-80
2023/10/11 08:48:28;;;;;;;7.20;4.90;;;;;;;12.04;48.54;100780.64;105930;1255;70309;-80
2023/10/11 08:50:56;;;;;;;7.90;5.00;;;;;;;12.15;48.60;100774.32;105744;1254;74894;-79
2023/10/11 08:53:26;;;;;;;8.60;4.90;;;;;;;12.39;47.78;100784.63;105872;1258;60445;-81
2023/10/11 08:55:57;;;;;;;10.20;4.70;;;;;;;12.55;47.22;100783.90;106239;1254;60466;-82
2023/10/11 08:58:27;;;;;;;10.30;5.50;;;;;;;12.69;46.58;100781.36;106230;1253;72157;-81
2023/10/11 09:00:56;;;;;;;10.10;5.40;;;;;;;12.87;46.48;100771.52;106997;1254;69221;-81
2023/10/11 09:03:26;;;;;;;9.60;5.10;;;;;;;13.15;45.89;100780.16;108343;1255;72672;-82
2023/10/11 09:06:00;;;;;;;8.60;4.60;;;;;;;13.49;45.09;100773.88;108909;1255;60984;-81
2023/10/11 09:08:32;;;;;;;6.70;4.10;;;;;;;13.85;44.49;100762.92;108492;1255;60116;-82
2023/10/11 09:11:28;;;;;;;;;;;;;;;14.21;43.52;100773.27;108090;1253;71608;-82
2023/10/11 09:14:13;;;;;;;10.00;4.70;;;;;;;14.33;42.99;100763.25;106668;1259;68871;-81
2023/10/11 09:16:41;;;;;;;6.30;4.20;;;;;;;14.51;43.00;100755.89;107518;1256;71150;-81
2023/10/11 09:19:10;;;;;;;9.90;4.00;;;;;;;14.94;42.93;100751.55;106233;1256;62286;-82
2023/10/11 09:21:38;;;;;;;5.30;4.10;;;;;;;15.55;41.74;100751.66;106637;1257;60432;-81
2023/10/11 09:24:22;;;;;;;7.50;4.00;;;;;;;16.04;40.49;100747.45;107139;1256;72664;-78
2023/10/11 09:27:18;;;;;;;5.50;3.80;;;;;;;16.44;40.04;100748.98;108064;1255;71112;-81
2023/10/11 09:29:48;;;;;;;7.20;4.10;;;;;;;16.78;39.36;100736.59;108052;1255;71470;-81
2023/10/11 09:32:27;;;;;;;6.40;3.90;;;;;;;17.15;38.92;100734.09;108172;1254;59150;-81
2023/10/11 09:34:56;;;;;;;6.80;3.80;;;;;;;17.60;37.73;100732.32;106896;1254;60461;-81
2023/10/11 09:37:25;;;;;;;5.50;3.80;;;;;;;17.77;37.03;100742.00;106654;1254;279547;-79
2023/10/11 09:42:22;;;;;;;5.60;4.40;;;;;;;17.69;36.84;100722.41;103502;1288;600479;-81
2023/10/11 09:44:51;;;;;;;4.90;3.80;;;;;;;17.96;36.53;100716.45;105574;1264;61045;-81
2023/10/11 09:47:19;;;;;;;5.30;3.70;;;;;;;18.24;36.10;100705.23;105584;1264;59385;-81
2023/10/11 09:49:47;;;;;;;6.00;3.50;;;;;;;18.62;36.36;100699.46;107051;1254;72472;-80
2023/10/11 09:52:18;;;;;;;3.90;3.40;;;;;;;19.26;34.84;100711.23;107361;1258;70533;-79
2023/10/11 09:54:50;;;;;;;5.30;3.60;;;;;;;19.53;34.28;100703.86;107014;1254;195428;-76
2023/10/11 09:57:38;;;;;;;3.50;3.10;;;;;;;19.40;33.77;100713.16;106392;1251;58804;-83
2023/10/11 10:00:18;;;;;;;8.00;3.50;;;;;;;19.11;33.84;100704.46;106691;1251;60496;-82
2023/10/11 10:02:51;;;;;;;4.20;3.30;;;;;;;19.15;33.87;100704.15;107897;1249;70932;-81
2023/10/11 10:05:30;;;;;;;4.40;3.20;;;;;;;19.23;33.81;100708.82;109376;1250;71582;-82
2023/10/11 10:08:13;;;;;;;3.70;2.80;;;;;;;19.21;33.68;100704.92;108508;1251;71467;-81
2023/10/11 10:10:54;;;;;;;4.40;3.30;;;;;;;19.43;33.51;100694.30;106912;1251;59506;-81
2023/10/11 10:13:25;;;;;;;7.10;2.70;;;;;;;19.92;33.14;100687.88;106733;1251;60036;-81
2023/10/11 10:15:53;;;;;;;4.30;3.30;;;;;;;20.40;32.33;100686.14;106201;1250;71835;-80
2023/10/11 10:18:22;;;;;;;5.10;4.10;;;;;;;20.66;31.81;100674.62;106367;1250;68704;-81
2023/10/11 10:21:04;;;;;;;6.10;3.40;;;;;;;20.68;31.53;100663.52;106204;1253;72785;-82
2023/10/11 10:23:32;;;;;;;13.40;3.60;;;;;;;20.66;31.36;100668.30;107154;1254;60206;-82
2023/10/11 10:26:03;;;;;;;8.60;3.50;;;;;;;20.51;31.14;100665.66;107440;1254;59548;-82
2023/10/11 10:28:39;;;;;;;6.40;3.30;;;;;;;20.17;31.34;100661.13;108853;1251;72684;-82
2023/10/11 10:31:12;;;;;;;4.00;2.90;;;;;;;20.09;31.57;100651.23;107896;1251;68746;-79
2023/10/11 10:33:52;;;;;;;3.60;2.90;;;;;;;20.37;31.25;100650.23;106083;1251;72764;-81
2023/10/11 10:36:31;;;;;;;4.70;3.40;;;;;;;20.60;30.67;100643.55;106211;1254;59553;-82
2023/10/11 10:41:38;;;;;;;4.60;3.50;;;;;;;20.21;30.58;100661.67;106375;1252;74447;-82
2023/10/11 10:44:10;;;;;;;4.30;3.10;;;;;;;19.92;30.74;100647.20;106559;1254;70403;-82
2023/10/11 10:46:59;;;;;;;6.40;4.40;;;;;;;19.76;30.73;100635.45;106598;1254;72519;-82
2023/10/11 10:49:41;;;;;;;5.10;3.70;;;;;;;19.58;30.89;100634.13;106421;1253;59605;-82
2023/10/11 10:52:23;;;;;;;8.40;3.90;;;;;;;19.34;31.05;100632.44;106742;1251;59211;-82
2023/10/11 10:55:04;;;;;;;10.10;3.90;;;;;;;19.03;31.24;100625.02;107094;1251;72250;-81
2023/10/11 10:57:38;;;;;;;4.50;3.40;;;;;;;18.80;31.73;100619.45;106451;1251;68606;-79
2023/10/11 11:00:24;;;;;;;5.20;3.80;;;;;;;18.79;31.73;100613.80;107195;1253;72646;-75
2023/10/11 11:02:56;;;;;;;6.30;3.40;;;;;;;18.62;31.63;100619.06;107976;1253;59595;-78
2023/10/11 11:05:25;;;;;;;4.50;3.20;;;;;;;18.24;31.98;100601.51;108420;1250;59487;-78
2023/10/11 11:08:18;;;;;;;6.80;3.70;;;;;;;17.86;32.49;100595.81;108191;1251;73137;-78
2023/10/11 11:10:54;;;;;;;7.60;3.70;;;;;;;17.31;33.13;100597.63;106574;1251;70025;-77
2023/10/11 11:13:25;;;;;;;8.60;4.10;;;;;;;16.95;33.79;100600.50;106226;1251;71348;-78
2023/10/11 11:15:55;;;;;;;7.70;3.60;;;;;;;16.93;34.01;100598.66;106092;1254;59627;-77
2023/10/11 11:18:33;;;;;;;4.40;4.00;;;;;;;17.19;33.53;100599.40;106009;1251;59593;-78
2023/10/11 11:21:17;;;;;;;5.00;3.20;;;;;;;17.62;32.94;100597.09;106082;1251;71699;-79
2023/10/11 11:23:51;;;;;;;6.70;3.50;;;;;;;18.05;32.61;100590.75;106076;1251;72236;-79
2023/10/11 11:26:23;;;;;;;7.10;3.00;;;;;;;18.48;31.90;100594.68;105968;1251;72559;-77
2023/10/11 11:29:10;;;;;;;4.10;3.10;;;;;;;18.94;31.19;100600.04;106057;1251;62281;-79
2023/10/11 11:31:51;;;;;;;4.20;3.00;;;;;;;19.08;31.08;100593.71;105996;1257;59544;-79
2023/10/11 11:34:37;;;;;;;4.90;3.20;;;;;;;18.76;31.25;100611.02;105965;1252;72198;-79
2023/10/11 11:37:06;;;;;;;4.50;3.20;;;;;;;18.02;31.98;100603.24;106247;1251;68840;-77
2023/10/11 11:39:39;;;;;;;5.70;3.50;;;;;;;17.34;32.76;100605.67;106087;1253;71231;-78
2023/10/11 11:42:19;;;;;;;3.50;3.00;;;;;;;17.04;33.15;100615.02;106207;1253;59526;-78
2023/10/11 11:44:47;;;;;;;5.50;3.80;;;;;;;16.92;33.04;100602.37;106226;1251;62239;-79
2023/10/11 11:47:21;;;;;;;4.20;3.40;;;;;;;16.91;33.27;100591.04;106048;1257;73390;-78
2023/10/11 11:49:58;;;;;;;8.00;3.60;;;;;;;17.13;33.32;100587.94;106177;1256;71828;-77
2023/10/11 11:52:28;;;;;;;11.40;4.20;;;;;;;17.66;32.80;100583.23;106111;1251;72449;-77
2023/10/11 11:54:56;;;;;;;4.60;3.20;;;;;;;18.30;32.29;100583.87;106237;1252;60108;-78
2023/10/11 11:57:29;;;;;;;6.00;3.20;;;;;;;18.95;31.47;100583.89;106164;1256;59538;-76
2023/10/11 11:59:58;;;;;;;7.20;3.20;;;;;;;19.54;30.39;100579.31;106425;1252;73534;-78
2023/10/11 12:02:26;;;;;;;6.40;3.30;;;;;;;19.81;29.61;100587.55;108041;1256;68807;-79
2023/10/11 12:04:56;;;;;;;10.00;3.90;;;;;;;19.69;29.62;100579.16;108624;1250;71536;-78
2023/10/11 12:07:24;;;;;;;9.40;3.60;;;;;;;19.80;29.71;100568.47;106961;1251;59713;-78
2023/10/11 12:09:55;;;;;;;7.20;3.70;;;;;;;20.15;28.98;100572.83;106108;1251;59707;-77
2023/10/11 12:12:30;;;;;;;5.40;4.00;;;;;;;20.40;28.86;100583.26;106463;1251;71558;-79
2023/10/11 12:14:59;;;;;;;5.00;3.20;;;;;;;20.64;28.56;100574.44;106009;1256;70505;-78
2023/10/11 12:17:28;;;;;;;6.00;3.90;;;;;;;20.75;28.37;100569.88;106212;1252;71572;-78
2023/10/11 12:19:56;;;;;;;6.00;4.00;;;;;;;20.69;28.45;100572.56;106078;1258;61059;-83
2023/10/11 12:22:26;;;;;;;7.00;3.00;;;;;;;20.70;27.96;100571.09;106366;1262;62439;-79
2023/10/11 12:24:58;;;;;;;7.90;3.60;;;;;;;20.77;28.15;100562.59;106748;1250;72513;-82
2023/10/11 12:27:26;;;;;;;7.00;3.40;;;;;;;21.07;27.91;100564.09;106719;1251;70790;-81
2023/10/11 12:29:54;;;;;;;5.70;3.40;;;;;;;21.16;27.56;100566.40;106783;1254;73723;-82
2023/10/11 12:32:36;;;;;;;6.40;3.30;;;;;;;21.11;27.53;100560.64;106952;1250;59445;-81
2023/10/11 12:35:07;;;;;;;5.80;3.80;;;;;;;21.15;27.43;100550.02;107308;1257;59525;-82
2023/10/11 12:37:36;;;;;;;6.00;2.90;;;;;;;21.19;27.48;100550.71;106624;1256;73324;-82